Home   Weather   Australia   Wollongong   Past weeks
Flag for Australia

Past Weather in Wollongong, New South Wales, Australia — Yesterday and Last 2 Weeks

Currently: 66 °F. Broken clouds. (Weather station: Sydney Airport, Australia). See more current weather

Past Weather in Wollongong — Graph

°F

Wollongong Temperature Yesterday

Maximum temperature yesterday: 72 °F (at 2:00 pm)
Minimum temperature yesterday: 46 °F (at 2:30 am)
Average temperature yesterday: 59 °F

High & Low Weather Summary for the Past Weeks

 TemperatureHumidityPressure
High77 °F (Jul 28, 1:00 pm)88% (Jul 24, 1:30 am)30.15 "Hg (Jul 24, 1:30 am)
Low43 °F (Jul 22, 3:30 am)22% (Jul 29, 3:00 pm)29.47 "Hg (Jul 17, 4:00 pm)
Average57 °F53%29.86 "Hg
* Reported Jul 17 4:00 pm — Aug 1 4:30 pm, Wollongong. Weather by CustomWeather, © 2021

Note: Actual official high and low records may vary slightly from our data, if they occured in-between our weather recording intervals... More about our weather records

Wollongong Weather History for the Previous 24 Hours

Scroll right to see more
 ConditionsComfort  
Time TempWeatherWind HumidityBarometerVisibility
4:30 pm
Sun, Aug 1
68 °FBroken clouds.18 mph43%29.77 "HgN/A
4:00 pm68 °FScattered showers. Partly sunny.21 mph40%29.80 "HgN/A
3:30 pm68 °FPartly sunny.20 mph43%29.77 "HgN/A
3:12 pm70 °FPartly sunny.22 mph43%29.77 "HgN/A
3:00 pm68 °FSunny.24 mph43%29.80 "Hg10 mi
2:30 pm68 °FScattered showers. Clear.28 mph43%29.77 "HgN/A
2:07 pm70 °FScattered showers. Clear.20 mph43%29.74 "HgN/A
2:00 pm70 °FPassing clouds.16 mph46%29.74 "HgN/A
1:30 pm66 °FSunny.15 mph68%29.74 "Hg10 mi
1:00 pm73 °FSunny.16 mph44%29.71 "Hg10 mi
12:30 pm75 °FSunny.14 mph39%29.71 "Hg10 mi
12:00 pm77 °FSunny.10 mph39%29.68 "Hg10 mi
11:30 am75 °FSunny.13 mph41%29.68 "Hg10 mi
11:00 am73 °FSunny.16 mph41%29.68 "Hg10 mi
9:28 am72 °FSunny.17 mph47%29.71 "Hg10 mi
9:00 am68 °FSunny.8 mph53%29.71 "Hg10 mi
8:30 am66 °FSunny.9 mph52%29.71 "Hg10 mi
8:00 am66 °FSunny.3 mph56%29.71 "Hg10 mi
7:30 am64 °FSunny.6 mph56%29.71 "Hg10 mi
7:00 am64 °FSunny.6 mph56%29.71 "Hg10 mi
6:30 am61 °FClear.10 mph63%29.68 "Hg10 mi
6:00 am63 °FClear.5 mph59%29.71 "Hg10 mi
5:30 am64 °FClear.8 mph56%29.71 "Hg10 mi
5:00 am64 °FClear.9 mph56%29.71 "Hg10 mi
4:30 am64 °FClear.12 mph52%29.71 "Hg10 mi
4:00 am64 °FClear.12 mph52%29.71 "Hg10 mi
3:30 am64 °FClear.10 mph52%29.71 "Hg10 mi
3:00 am64 °FClear.9 mph52%29.71 "Hg10 mi
2:30 am64 °FClear.8 mph52%29.74 "Hg10 mi
2:00 am64 °FClear.8 mph52%29.74 "Hg10 mi
1:30 am64 °FClear.10 mph49%29.74 "Hg10 mi
1:00 am63 °FClear.13 mph56%29.74 "Hg10 mi
12:30 am64 °FClear.14 mph49%29.77 "Hg10 mi
12:00 am63 °FClear.12 mph52%29.77 "Hg10 mi
11:30 pm
Sat, Jul 31
63 °FClear.14 mph52%29.77 "Hg10 mi
11:00 pm64 °FClear.15 mph49%29.77 "Hg10 mi
10:30 pm64 °FClear.17 mph49%29.80 "Hg10 mi
10:00 pm64 °FClear.16 mph49%29.80 "Hg10 mi
9:30 pm66 °FClear.16 mph46%29.80 "Hg10 mi
9:00 pm64 °FClear.17 mph46%29.80 "Hg10 mi
8:30 pm68 °FClear.17 mph40%29.80 "Hg10 mi
8:00 pm68 °FClear.16 mph40%29.77 "Hg10 mi
7:30 pm66 °FClear.14 mph46%29.77 "Hg10 mi
7:00 pm64 °FClear.16 mph56%29.77 "Hg10 mi
6:30 pm64 °FClear.15 mph60%29.77 "Hg10 mi
6:00 pm64 °FClear.16 mph64%29.77 "Hg10 mi
Weather by CustomWeather, © 2021

See weather overview